Time;durP1;ratioP1;P1;durP2;ratioP2;P2;SDS_P1;SDS_P2;PMS_P1;PMS_P2;Temp;Humidity;BMP_temperature;BMP_pressure;BME280_temperature;BME280_humidity;BME280_pressure;Samples;Min_cycle;Max_cycle;Signal;HPM_P1;HPM_P2
2022/03/09 00:00:38;;;;;;;15.00;7.00;;;;;;;;;;4950262;28;20052;-61
2022/03/09 00:03:05;;;;;;;15.65;7.20;;;;;;;;;;4950309;28;20052;-61
2022/03/09 00:05:31;;;;;;;14.05;7.90;;;;;;;;;;4949522;28;20066;-61
2022/03/09 00:07:58;;;;;;;15.00;7.18;;;;;;;;;;4950074;28;20693;-62
2022/03/09 00:10:25;;;;;;;13.48;7.32;;;;;;;;;;4951155;28;20581;-61
2022/03/09 00:12:52;;;;;;;12.98;6.85;;;;;;;;;;4950378;28;20153;-61
2022/03/09 00:15:18;;;;;;;12.30;6.43;;;;;;;;;;4950317;28;20142;-61
2022/03/09 00:17:44;;;;;;;12.80;6.72;;;;;;;;;;4950089;28;20066;-61
2022/03/09 00:20:11;;;;;;;14.88;6.53;;;;;;;;;;4950185;28;20060;-60
2022/03/09 00:22:37;;;;;;;16.30;6.85;;;;;;;;;;4950299;28;20051;-61
2022/03/09 00:25:04;;;;;;;18.42;7.30;;;;;;;;;;4949253;28;20533;-61
2022/03/09 00:27:31;;;;;;;15.73;7.13;;;;;;;;;;4949835;28;20119;-61
2022/03/09 00:29:57;;;;;;;13.55;6.88;;;;;;;;;;4949445;28;20051;-61
2022/03/09 00:32:23;;;;;;;14.38;7.32;;;;;;;;;;4949268;28;20056;-61
2022/03/09 00:34:50;;;;;;;14.48;7.40;;;;;;;;;;4949604;28;20052;-61
2022/03/09 00:37:16;;;;;;;13.88;7.03;;;;;;;;;;4949917;28;20174;-61
2022/03/09 00:39:42;;;;;;;12.35;7.07;;;;;;;;;;4949338;28;20047;-61
2022/03/09 00:42:09;;;;;;;14.25;6.68;;;;;;;;;;4950249;28;20059;-61
2022/03/09 00:44:35;;;;;;;15.70;7.72;;;;;;;;;;4948774;28;20058;-61
2022/03/09 00:47:02;;;;;;;13.68;6.88;;;;;;;;;;4949446;28;20052;-60
2022/03/09 00:49:28;;;;;;;15.90;6.95;;;;;;;;;;4950498;28;20043;-61
2022/03/09 00:51:55;;;;;;;13.10;6.85;;;;;;;;;;4948917;28;20638;-61
2022/03/09 00:54:21;;;;;;;13.80;6.90;;;;;;;;;;4950292;28;20056;-61
2022/03/09 00:56:47;;;;;;;13.02;6.70;;;;;;;;;;4949362;28;20134;-61
2022/03/09 00:59:14;;;;;;;13.77;6.93;;;;;;;;;;4949619;28;20079;-61
2022/03/09 01:01:40;;;;;;;19.67;7.20;;;;;;;;;;4948299;28;20146;-61
2022/03/09 01:04:07;;;;;;;12.90;7.03;;;;;;;;;;4949323;28;20056;-61
2022/03/09 01:06:33;;;;;;;12.73;6.55;;;;;;;;;;4949647;28;20167;-62
2022/03/09 01:09:01;;;;;;;15.80;7.25;;;;;;;;;;4949549;28;20081;-61
2022/03/09 01:11:28;;;;;;;15.30;6.90;;;;;;;;;;4949013;28;20189;-61
2022/03/09 01:13:54;;;;;;;15.98;6.18;;;;;;;;;;4948458;28;20060;-61
2022/03/09 01:16:20;;;;;;;16.50;7.15;;;;;;;;;;4949245;28;20502;-61
2022/03/09 01:18:47;;;;;;;15.23;6.60;;;;;;;;;;4948707;28;20039;-61
2022/03/09 01:21:13;;;;;;;13.50;7.07;;;;;;;;;;4949143;28;20131;-61
2022/03/09 01:23:39;;;;;;;14.20;6.43;;;;;;;;;;4948330;28;20062;-62
2022/03/09 01:26:06;;;;;;;14.43;6.70;;;;;;;;;;4949525;28;20057;-62
2022/03/09 01:28:33;;;;;;;15.20;7.05;;;;;;;;;;4948505;28;20499;-62
2022/03/09 01:30:59;;;;;;;12.77;6.43;;;;;;;;;;4949733;28;20058;-61
2022/03/09 01:33:26;;;;;;;11.85;6.65;;;;;;;;;;4948788;28;20590;-62
2022/03/09 01:35:52;;;;;;;12.48;5.82;;;;;;;;;;4947883;28;20524;-61
2022/03/09 01:38:18;;;;;;;12.15;6.47;;;;;;;;;;4949220;28;20060;-61
2022/03/09 01:40:45;;;;;;;13.95;6.25;;;;;;;;;;4949582;28;20095;-61
2022/03/09 01:43:13;;;;;;;12.70;5.97;;;;;;;;;;4948448;28;20534;-61
2022/03/09 01:45:40;;;;;;;20.55;6.40;;;;;;;;;;4949042;28;20055;-62
2022/03/09 01:48:06;;;;;;;13.55;6.15;;;;;;;;;;4949040;28;20154;-61
2022/03/09 01:50:32;;;;;;;12.90;6.60;;;;;;;;;;4948967;28;20062;-61
2022/03/09 01:52:59;;;;;;;18.00;6.90;;;;;;;;;;4948087;28;20058;-62
2022/03/09 01:55:26;;;;;;;11.85;6.32;;;;;;;;;;4948440;28;20056;-62
2022/03/09 01:57:54;;;;;;;10.80;6.00;;;;;;;;;;4947352;28;21008;-62
2022/03/09 02:00:22;;;;;;;12.30;6.28;;;;;;;;;;4948404;28;20059;-61
2022/03/09 02:02:48;;;;;;;11.87;6.00;;;;;;;;;;4948590;28;20058;-62
2022/03/09 02:05:18;;;;;;;13.90;6.55;;;;;;;;;;4948995;28;20115;-62
2022/03/09 02:10:29;;;;;;;13.20;6.38;;;;;;;;;;4948649;28;20051;-63
2022/03/09 02:12:58;;;;;;;11.73;6.18;;;;;;;;;;4946756;28;20098;-63
2022/03/09 02:15:25;;;;;;;12.60;6.80;;;;;;;;;;4948124;28;20182;-62
2022/03/09 02:17:51;;;;;;;13.15;6.05;;;;;;;;;;4947758;28;20083;-62
2022/03/09 02:20:17;;;;;;;11.77;5.78;;;;;;;;;;4948748;28;20138;-64
2022/03/09 02:22:44;;;;;;;12.18;6.53;;;;;;;;;;4947786;28;20647;-64
2022/03/09 02:25:11;;;;;;;14.13;7.00;;;;;;;;;;4948334;28;20063;-64
2022/03/09 02:27:38;;;;;;;14.48;7.15;;;;;;;;;;4948798;28;20143;-62
2022/03/09 02:30:05;;;;;;;14.15;7.10;;;;;;;;;;4948666;28;20316;-61
2022/03/09 02:32:32;;;;;;;13.55;6.60;;;;;;;;;;4947605;28;20622;-61
2022/03/09 02:34:58;;;;;;;13.23;6.85;;;;;;;;;;4948067;28;20056;-62
2022/03/09 02:37:30;;;;;;;15.27;7.05;;;;;;;;;;4948457;28;20058;-61
2022/03/09 02:39:56;;;;;;;12.10;6.97;;;;;;;;;;4947453;28;20056;-61
2022/03/09 02:42:23;;;;;;;15.27;6.90;;;;;;;;;;4931235;28;20058;-61
2022/03/09 02:44:49;;;;;;;13.60;6.47;;;;;;;;;;4948156;28;20066;-61
2022/03/09 02:47:15;;;;;;;12.38;6.50;;;;;;;;;;4947740;28;20059;-62
2022/03/09 02:49:42;;;;;;;11.70;6.55;;;;;;;;;;4947881;28;20066;-62
2022/03/09 02:52:09;;;;;;;13.83;6.73;;;;;;;;;;4947000;28;20103;-61
2022/03/09 02:54:36;;;;;;;16.80;6.90;;;;;;;;;;4947104;28;20502;-61
2022/03/09 02:57:02;;;;;;;15.65;7.25;;;;;;;;;;4947795;28;20143;-61
2022/03/09 02:59:28;;;;;;;13.75;6.88;;;;;;;;;;4947459;28;20824;-61
2022/03/09 03:01:55;;;;;;;13.13;7.05;;;;;;;;;;4948084;28;20055;-61
2022/03/09 03:04:21;;;;;;;15.90;6.70;;;;;;;;;;4946484;28;20448;-61
2022/03/09 03:06:48;;;;;;;13.45;6.78;;;;;;;;;;4948722;28;20047;-61
2022/03/09 03:09:14;;;;;;;16.40;7.50;;;;;;;;;;4950698;28;20602;-61
2022/03/09 03:11:44;;;;;;;14.57;7.15;;;;;;;;;;4951271;28;20067;-61
2022/03/09 03:14:10;;;;;;;17.42;7.03;;;;;;;;;;4950201;28;20064;-61
2022/03/09 03:16:36;;;;;;;14.93;6.28;;;;;;;;;;4934226;28;20059;-61
2022/03/09 03:19:03;;;;;;;16.58;6.22;;;;;;;;;;4950497;28;20052;-61
2022/03/09 03:21:30;;;;;;;15.10;6.95;;;;;;;;;;4951333;28;20083;-62
2022/03/09 03:23:56;;;;;;;16.42;7.10;;;;;;;;;;4949472;28;20095;-61
2022/03/09 03:26:24;;;;;;;13.18;6.78;;;;;;;;;;4950424;28;20661;-61
2022/03/09 03:28:51;;;;;;;15.00;7.03;;;;;;;;;;4950459;28;20115;-61
2022/03/09 03:31:18;;;;;;;15.52;7.60;;;;;;;;;;4951001;28;20274;-62
2022/03/09 03:33:45;;;;;;;14.50;6.18;;;;;;;;;;4950103;28;20150;-61
2022/03/09 03:36:11;;;;;;;15.80;7.30;;;;;;;;;;4950157;28;20070;-61
2022/03/09 03:38:38;;;;;;;15.68;6.97;;;;;;;;;;4950790;28;20433;-61
2022/03/09 03:41:04;;;;;;;14.18;6.97;;;;;;;;;;4950984;28;20146;-62
2022/03/09 03:43:30;;;;;;;15.23;7.20;;;;;;;;;;4949490;28;20059;-61
2022/03/09 03:45:57;;;;;;;15.27;7.30;;;;;;;;;;4949869;28;20087;-61
2022/03/09 03:48:23;;;;;;;13.90;6.47;;;;;;;;;;4951251;28;20051;-61
2022/03/09 03:50:50;;;;;;;13.77;6.88;;;;;;;;;;4950882;28;20063;-61
2022/03/09 03:53:16;;;;;;;14.65;7.05;;;;;;;;;;4949036;28;20058;-61
2022/03/09 03:55:44;;;;;;;15.00;7.07;;;;;;;;;;4949955;28;20121;-61
2022/03/09 03:58:11;;;;;;;15.32;7.03;;;;;;;;;;4950610;28;20062;-61
2022/03/09 04:00:37;;;;;;;15.32;7.13;;;;;;;;;;4950084;28;20055;-61
2022/03/09 04:03:04;;;;;;;15.40;6.88;;;;;;;;;;4950166;28;20055;-61
2022/03/09 04:05:31;;;;;;;15.98;7.47;;;;;;;;;;4950276;28;20135;-61
2022/03/09 04:07:59;;;;;;;14.48;6.82;;;;;;;;;;4950186;28;20111;-61
2022/03/09 04:10:25;;;;;;;14.07;7.47;;;;;;;;;;4950750;28;20570;-61
2022/03/09 04:12:52;;;;;;;14.85;6.50;;;;;;;;;;4950641;28;20135;-61
2022/03/09 04:15:18;;;;;;;16.65;6.82;;;;;;;;;;4949866;28;20166;-61
2022/03/09 04:17:45;;;;;;;18.15;7.43;;;;;;;;;;4949853;28;20052;-61
2022/03/09 04:20:12;;;;;;;14.63;7.38;;;;;;;;;;4948016;28;20066;-61
2022/03/09 04:22:39;;;;;;;13.93;7.15;;;;;;;;;;4949920;28;20055;-61
2022/03/09 04:25:05;;;;;;;13.15;7.18;;;;;;;;;;4950121;28;20524;-61
2022/03/09 04:27:32;;;;;;;13.13;6.88;;;;;;;;;;4949949;28;20051;-62
2022/03/09 04:29:58;;;;;;;14.43;7.93;;;;;;;;;;4949615;28;20163;-61
2022/03/09 04:32:25;;;;;;;15.02;6.85;;;;;;;;;;4949874;28;20058;-61
2022/03/09 04:34:52;;;;;;;18.08;7.35;;;;;;;;;;4949741;28;20095;-61
2022/03/09 04:37:19;;;;;;;14.73;7.28;;;;;;;;;;4950053;28;20874;-61
2022/03/09 04:39:45;;;;;;;16.50;7.10;;;;;;;;;;4949562;28;20052;-61
2022/03/09 04:42:11;;;;;;;16.75;7.25;;;;;;;;;;4948845;28;20090;-61
2022/03/09 04:44:38;;;;;;;14.63;7.38;;;;;;;;;;4949498;28;20072;-61
2022/03/09 04:47:04;;;;;;;15.40;6.72;;;;;;;;;;4949687;28;20048;-61
2022/03/09 04:49:31;;;;;;;14.93;7.13;;;;;;;;;;4950276;28;20064;-61
2022/03/09 04:51:57;;;;;;;16.35;7.05;;;;;;;;;;4949748;28;20051;-61
2022/03/09 04:54:24;;;;;;;16.60;7.57;;;;;;;;;;4948481;28;20055;-61
2022/03/09 04:56:50;;;;;;;14.05;7.47;;;;;;;;;;4949265;28;20060;-61
2022/03/09 04:59:17;;;;;;;13.88;6.82;;;;;;;;;;4949838;28;20060;-61
2022/03/09 05:01:43;;;;;;;14.93;7.45;;;;;;;;;;4948936;28;20498;-62
2022/03/09 05:04:10;;;;;;;13.80;7.47;;;;;;;;;;4948428;28;20524;-61
2022/03/09 05:06:36;;;;;;;16.00;7.68;;;;;;;;;;4949804;28;20056;-61
2022/03/09 05:09:02;;;;;;;13.18;6.65;;;;;;;;;;4949718;28;20175;-61
2022/03/09 05:11:35;;;;;;;18.88;8.50;;;;;;;;;;4950189;28;20087;-62
2022/03/09 05:14:02;;;;;;;14.07;8.07;;;;;;;;;;4949050;28;20066;-61
2022/03/09 05:16:28;;;;;;;14.85;7.18;;;;;;;;;;4949342;28;20525;-61
2022/03/09 05:18:54;;;;;;;12.68;7.07;;;;;;;;;;4948531;28;20888;-61
2022/03/09 05:21:21;;;;;;;13.77;7.55;;;;;;;;;;4949036;28;20070;-61
2022/03/09 05:23:47;;;;;;;15.15;7.70;;;;;;;;;;4949153;28;20557;-61
2022/03/09 05:26:13;;;;;;;14.30;6.90;;;;;;;;;;4949297;28;20106;-61
2022/03/09 05:28:40;;;;;;;15.10;7.22;;;;;;;;;;4948791;28;20063;-62
2022/03/09 05:31:06;;;;;;;16.83;7.07;;;;;;;;;;4948491;28;20059;-61
2022/03/09 05:33:32;;;;;;;14.00;7.72;;;;;;;;;;4948921;28;20083;-61
2022/03/09 05:35:59;;;;;;;15.55;8.05;;;;;;;;;;4948585;28;20157;-61
2022/03/09 05:38:26;;;;;;;14.85;8.23;;;;;;;;;;4949208;28;20060;-61
2022/03/09 05:40:52;;;;;;;16.70;7.78;;;;;;;;;;4948668;28;20066;-61
2022/03/09 05:43:18;;;;;;;13.52;7.32;;;;;;;;;;4949319;28;20151;-61
2022/03/09 05:45:45;;;;;;;15.20;7.80;;;;;;;;;;4948822;28;20138;-61
2022/03/09 05:48:11;;;;;;;16.55;7.78;;;;;;;;;;4947933;28;20566;-62
2022/03/09 05:50:37;;;;;;;15.65;7.95;;;;;;;;;;4946973;28;20052;-61
2022/03/09 05:53:04;;;;;;;14.82;7.57;;;;;;;;;;4948173;28;20056;-62
2022/03/09 05:55:30;;;;;;;19.08;8.48;;;;;;;;;;4948906;28;20147;-62
2022/03/09 05:57:57;;;;;;;16.50;8.48;;;;;;;;;;4945483;28;20091;-62
2022/03/09 06:00:23;;;;;;;15.38;7.47;;;;;;;;;;4947469;28;20066;-62
2022/03/09 06:02:49;;;;;;;16.05;7.60;;;;;;;;;;4947594;28;20150;-62
2022/03/09 06:05:18;;;;;;;15.85;8.18;;;;;;;;;;4947423;28;20883;-62
2022/03/09 06:07:47;;;;;;;23.35;7.97;;;;;;;;;;4948259;28;20094;-62
2022/03/09 06:10:13;;;;;;;18.00;8.68;;;;;;;;;;4948673;28;20055;-62
2022/03/09 06:12:39;;;;;;;19.25;8.07;;;;;;;;;;4948911;28;20146;-61
2022/03/09 06:15:06;;;;;;;16.75;8.80;;;;;;;;;;4945779;28;20153;-62
2022/03/09 06:17:32;;;;;;;17.17;8.43;;;;;;;;;;4948082;28;20056;-62
2022/03/09 06:19:59;;;;;;;15.43;7.78;;;;;;;;;;4946093;28;20051;-62
2022/03/09 06:22:25;;;;;;;15.13;7.97;;;;;;;;;;4948250;28;20047;-62
2022/03/09 06:24:51;;;;;;;15.90;8.02;;;;;;;;;;4947962;28;20062;-61
2022/03/09 06:27:18;;;;;;;13.93;7.32;;;;;;;;;;4947647;28;20060;-61
2022/03/09 06:29:44;;;;;;;16.38;7.93;;;;;;;;;;4947525;28;20062;-61
2022/03/09 06:32:10;;;;;;;14.43;7.15;;;;;;;;;;4948236;28;20062;-61
2022/03/09 06:34:37;;;;;;;18.27;8.88;;;;;;;;;;4945921;28;20062;-61
2022/03/09 06:37:03;;;;;;;17.63;7.85;;;;;;;;;;4946817;28;20056;-62
2022/03/09 06:39:29;;;;;;;17.48;7.80;;;;;;;;;;4947809;28;20051;-62
2022/03/09 06:41:56;;;;;;;18.70;7.90;;;;;;;;;;4948767;28;20194;-62
2022/03/09 06:44:23;;;;;;;18.35;7.45;;;;;;;;;;4951141;28;20154;-62
2022/03/09 06:46:50;;;;;;;16.10;7.90;;;;;;;;;;4952549;28;20068;-62
2022/03/09 06:49:16;;;;;;;14.15;7.05;;;;;;;;;;4951531;28;20077;-62
2022/03/09 06:51:42;;;;;;;23.88;8.30;;;;;;;;;;4950463;28;20526;-62
2022/03/09 06:54:08;;;;;;;16.58;7.80;;;;;;;;;;4951000;28;20062;-62
2022/03/09 06:56:35;;;;;;;17.27;8.07;;;;;;;;;;4951312;28;20056;-62
2022/03/09 06:59:01;;;;;;;17.63;8.50;;;;;;;;;;4951064;28;20056;-61
2022/03/09 07:01:27;;;;;;;17.13;7.90;;;;;;;;;;4950318;28;20591;-62
2022/03/09 07:03:54;;;;;;;16.83;7.60;;;;;;;;;;4951347;28;20805;-61
2022/03/09 07:06:20;;;;;;;15.52;7.45;;;;;;;;;;4951848;28;20060;-62
2022/03/09 07:08:46;;;;;;;19.45;7.90;;;;;;;;;;4950037;28;20506;-60
2022/03/09 07:11:13;;;;;;;15.40;6.88;;;;;;;;;;4951568;28;20494;-62
2022/03/09 07:13:41;;;;;;;15.63;7.32;;;;;;;;;;4950831;28;20060;-62
2022/03/09 07:16:07;;;;;;;15.75;7.45;;;;;;;;;;4951544;28;20179;-63
2022/03/09 07:18:34;;;;;;;15.48;6.70;;;;;;;;;;4951298;28;20503;-63
2022/03/09 07:21:01;;;;;;;15.75;7.45;;;;;;;;;;4951410;28;20154;-63
2022/03/09 07:23:27;;;;;;;14.85;7.20;;;;;;;;;;4950093;28;20828;-63
2022/03/09 07:25:54;;;;;;;15.48;6.65;;;;;;;;;;4951984;28;20863;-63
2022/03/09 07:28:20;;;;;;;12.48;6.13;;;;;;;;;;4950805;28;20143;-63
2022/03/09 07:30:46;;;;;;;14.07;7.18;;;;;;;;;;4950427;28;20189;-63
2022/03/09 07:33:13;;;;;;;14.80;6.15;;;;;;;;;;4950341;28;20127;-63
2022/03/09 07:35:39;;;;;;;21.25;7.10;;;;;;;;;;4949498;28;20055;-63
2022/03/09 07:38:07;;;;;;;13.27;6.38;;;;;;;;;;4950763;28;20055;-63
2022/03/09 07:40:33;;;;;;;10.60;6.18;;;;;;;;;;4951053;28;20152;-64
2022/03/09 07:42:59;;;;;;;14.43;6.07;;;;;;;;;;4950702;28;20063;-64
2022/03/09 07:45:26;;;;;;;16.65;6.47;;;;;;;;;;4950192;28;20051;-64
2022/03/09 07:47:52;;;;;;;14.18;5.93;;;;;;;;;;4951286;28;20103;-62
2022/03/09 07:50:18;;;;;;;11.20;6.07;;;;;;;;;;4949757;28;20150;-62
2022/03/09 07:52:45;;;;;;;14.48;5.75;;;;;;;;;;4949186;28;20158;-62
2022/03/09 07:55:11;;;;;;;17.88;6.50;;;;;;;;;;4951000;28;20143;-62
2022/03/09 07:57:38;;;;;;;11.38;6.18;;;;;;;;;;4950473;28;20171;-61
2022/03/09 08:00:05;;;;;;;12.95;5.65;;;;;;;;;;4949628;28;20518;-62
2022/03/09 08:02:31;;;;;;;14.05;6.47;;;;;;;;;;4950619;28;20059;-61
2022/03/09 08:04:57;;;;;;;13.75;6.72;;;;;;;;;;4948305;28;20059;-61
2022/03/09 08:07:24;;;;;;;17.77;6.53;;;;;;;;;;4951192;28;20154;-61
2022/03/09 08:09:50;;;;;;;14.00;6.47;;;;;;;;;;4950543;28;20058;-62
2022/03/09 08:12:16;;;;;;;13.68;6.43;;;;;;;;;;4950364;28;20166;-62
2022/03/09 08:14:42;;;;;;;12.95;6.68;;;;;;;;;;4944984;28;20950;-62
2022/03/09 08:17:09;;;;;;;12.38;6.10;;;;;;;;;;4946460;28;20055;-62
2022/03/09 08:19:35;;;;;;;12.82;6.32;;;;;;;;;;4950189;28;20066;-62
2022/03/09 08:22:02;;;;;;;14.88;6.85;;;;;;;;;;4949657;28;20054;-62
2022/03/09 08:24:28;;;;;;;12.25;6.30;;;;;;;;;;4950973;28;20135;-62
2022/03/09 08:27:00;;;;;;;18.88;6.75;;;;;;;;;;4950465;28;20143;-62
2022/03/09 08:29:27;;;;;;;13.02;6.43;;;;;;;;;;4949706;28;20058;-63
2022/03/09 08:31:53;;;;;;;11.38;5.93;;;;;;;;;;4951065;28;20091;-62
2022/03/09 08:34:19;;;;;;;14.77;6.93;;;;;;;;;;4946059;28;20056;-62
2022/03/09 08:36:46;;;;;;;12.45;6.32;;;;;;;;;;4949415;28;20066;-62
2022/03/09 08:39:15;;;;;;;12.95;6.43;;;;;;;;;;4950847;28;20525;-62
2022/03/09 08:41:44;;;;;;;12.75;6.15;;;;;;;;;;4950267;28;20079;-62
2022/03/09 08:44:30;;;;;;;11.23;6.03;;;;;;;;;;4950062;28;20063;-62
2022/03/09 08:46:56;;;;;;;11.75;5.45;;;;;;;;;;4947935;28;20063;-62
2022/03/09 08:49:23;;;;;;;16.40;6.72;;;;;;;;;;4950815;28;20056;-62
2022/03/09 08:51:49;;;;;;;13.85;6.57;;;;;;;;;;4949977;28;20170;-63
2022/03/09 08:54:18;;;;;;;;;;;;;;;;;;4950381;28;20055;-62
2022/03/09 08:56:44;;;;;;;14.98;6.72;;;;;;;;;;4948659;28;45316;-63
2022/03/09 08:59:10;;;;;;;15.52;6.55;;;;;;;;;;4945103;28;20060;-62
2022/03/09 09:01:37;;;;;;;14.20;6.63;;;;;;;;;;4948606;28;20353;-63
2022/03/09 09:04:16;;;;;;;13.32;6.80;;;;;;;;;;4947825;28;20052;-63
2022/03/09 09:06:43;;;;;;;17.45;7.53;;;;;;;;;;4947798;28;20507;-62
2022/03/09 09:09:09;;;;;;;17.58;7.30;;;;;;;;;;4949395;28;20059;-63
2022/03/09 09:11:37;;;;;;;13.07;6.55;;;;;;;;;;4949405;28;20190;-62
2022/03/09 09:14:04;;;;;;;14.98;6.03;;;;;;;;;;4949076;28;20055;-61
2022/03/09 09:16:30;;;;;;;12.73;6.25;;;;;;;;;;4949370;28;20524;-62
2022/03/09 09:18:56;;;;;;;14.07;6.70;;;;;;;;;;4948662;28;20150;-62
2022/03/09 09:21:23;;;;;;;11.98;5.63;;;;;;;;;;4949451;28;20535;-63
2022/03/09 09:23:49;;;;;;;14.52;6.95;;;;;;;;;;4949001;28;20151;-62
2022/03/09 09:26:16;;;;;;;14.32;7.57;;;;;;;;;;4948482;28;20054;-63
2022/03/09 09:29:02;;;;;;;22.55;7.57;;;;;;;;;;4948156;28;20052;-63
2022/03/09 09:31:28;;;;;;;13.88;6.38;;;;;;;;;;4942134;28;20151;-63
2022/03/09 09:33:55;;;;;;;17.48;7.10;;;;;;;;;;4947707;28;20154;-62
2022/03/09 09:36:21;;;;;;;14.10;7.18;;;;;;;;;;4917115;28;20134;-63
2022/03/09 09:38:48;;;;;;;19.38;8.23;;;;;;;;;;4947280;28;20055;-64
2022/03/09 09:41:18;;;;;;;13.00;7.10;;;;;;;;;;4949125;28;20060;-62
2022/03/09 09:43:47;;;;;;;16.67;7.60;;;;;;;;;;4947649;28;20059;-62
2022/03/09 09:46:15;;;;;;;14.60;7.22;;;;;;;;;;4962337;28;20405;-62
2022/03/09 09:48:43;;;;;;;16.95;8.07;;;;;;;;;;4938429;28;20545;-62
2022/03/09 09:51:10;;;;;;;14.95;7.40;;;;;;;;;;4948678;28;20100;-61
2022/03/09 09:53:40;;;;;;;16.60;8.27;;;;;;;;;;4948684;28;20056;-68
2022/03/09 09:56:07;;;;;;;15.60;7.85;;;;;;;;;;4948483;28;20110;-65
2022/03/09 09:58:34;;;;;;;17.38;8.13;;;;;;;;;;4947590;28;20062;-61
2022/03/09 10:01:00;;;;;;;15.13;8.07;;;;;;;;;;4948249;28;20058;-63
2022/03/09 10:03:27;;;;;;;14.95;7.28;;;;;;;;;;4946526;28;20059;-61
2022/03/09 10:05:54;;;;;;;15.35;7.47;;;;;;;;;;4946716;28;20063;-61
2022/03/09 10:08:20;;;;;;;15.60;7.25;;;;;;;;;;4947431;28;20060;-61
2022/03/09 10:10:57;;;;;;;15.35;7.88;;;;;;;;;;4948166;28;20067;-61
2022/03/09 10:13:26;;;;;;;15.07;7.40;;;;;;;;;;4947023;28;20423;-62
2022/03/09 10:15:52;;;;;;;;;;;;;;;;;;4946929;28;20131;-63
2022/03/09 10:18:20;;;;;;;14.63;6.72;;;;;;;;;;4946456;28;46185;-62
2022/03/09 10:20:47;;;;;;;22.75;9.13;;;;;;;;;;4949180;28;20055;-62
2022/03/09 10:23:15;;;;;;;14.90;7.93;;;;;;;;;;4948463;28;20070;-62
2022/03/09 10:25:41;;;;;;;16.48;8.43;;;;;;;;;;4947804;28;20051;-62
2022/03/09 10:28:10;;;;;;;19.83;8.48;;;;;;;;;;4949197;28;20575;-65
2022/03/09 10:30:39;;;;;;;21.33;9.68;;;;;;;;;;4948606;28;20055;-63
2022/03/09 10:33:05;;;;;;;;;;;;;;;;;;4948904;28;20056;-62
2022/03/09 10:35:31;;;;;;;18.23;8.98;;;;;;;;;;4946756;28;43381;-64
2022/03/09 10:37:57;;;;;;;18.92;8.57;;;;;;;;;;4948038;28;20051;-63
2022/03/09 10:40:24;;;;;;;18.70;8.77;;;;;;;;;;4947706;28;20063;-64
2022/03/09 10:42:51;;;;;;;25.98;9.63;;;;;;;;;;4948635;28;20154;-61
2022/03/09 10:45:18;;;;;;;33.20;10.43;;;;;;;;;;4945061;28;20439;-61
2022/03/09 10:47:46;;;;;;;24.90;10.27;;;;;;;;;;4948011;28;20058;-62
2022/03/09 10:50:17;;;;;;;20.33;10.05;;;;;;;;;;4948143;28;20113;-62
2022/03/09 10:52:48;;;;;;;18.42;9.13;;;;;;;;;;4947543;28;20087;-62
2022/03/09 10:55:35;;;;;;;21.08;9.57;;;;;;;;;;4947494;28;20518;-62
2022/03/09 10:58:15;;;;;;;20.75;8.90;;;;;;;;;;4929152;28;20064;-62
2022/03/09 11:00:43;;;;;;;23.60;9.75;;;;;;;;;;4943905;28;20594;-64
2022/03/09 11:03:12;;;;;;;21.75;9.10;;;;;;;;;;4948390;28;20080;-62
2022/03/09 11:05:46;;;;;;;23.45;10.52;;;;;;;;;;4946581;28;20052;-62
2022/03/09 11:08:13;;;;;;;21.30;9.45;;;;;;;;;;4947410;28;20159;-62
2022/03/09 11:10:39;;;;;;;21.80;9.50;;;;;;;;;;4947107;28;21856;-62
2022/03/09 11:13:05;;;;;;;23.10;10.80;;;;;;;;;;4947036;28;20064;-63
2022/03/09 11:15:32;;;;;;;19.40;9.57;;;;;;;;;;4946728;28;20062;-63
2022/03/09 11:17:58;;;;;;;21.25;10.35;;;;;;;;;;4947391;28;20055;-63
2022/03/09 11:20:25;;;;;;;22.83;10.60;;;;;;;;;;4948181;28;20064;-63
2022/03/09 11:22:51;;;;;;;21.55;10.68;;;;;;;;;;4946234;28;20060;-63
2022/03/09 11:25:21;;;;;;;22.05;9.63;;;;;;;;;;4948311;28;20576;-63
2022/03/09 11:27:50;;;;;;;21.10;11.02;;;;;;;;;;4946732;28;20568;-63
2022/03/09 11:30:25;;;;;;;25.65;10.65;;;;;;;;;;4949742;28;20548;-63
2022/03/09 11:32:54;;;;;;;25.25;11.35;;;;;;;;;;4946756;28;20446;-64
2022/03/09 11:35:30;;;;;;;23.75;10.88;;;;;;;;;;4935553;28;20499;-63
2022/03/09 11:37:57;;;;;;;24.25;10.75;;;;;;;;;;4948817;28;20067;-63
2022/03/09 11:40:23;;;;;;;26.25;12.93;;;;;;;;;;4949903;28;20056;-63
2022/03/09 11:42:50;;;;;;;21.73;11.63;;;;;;;;;;4939918;28;20087;-63
2022/03/09 11:45:16;;;;;;;21.60;12.02;;;;;;;;;;4947400;28;20143;-63
2022/03/09 11:47:55;;;;;;;24.05;11.77;;;;;;;;;;4949685;28;20938;-63
2022/03/09 11:50:22;;;;;;;23.00;10.85;;;;;;;;;;4950699;28;20067;-63
2022/03/09 11:52:59;;;;;;;24.70;11.02;;;;;;;;;;4945737;28;20099;-63
2022/03/09 11:55:26;;;;;;;25.05;12.05;;;;;;;;;;4950304;28;20077;-63
2022/03/09 11:57:56;;;;;;;23.65;11.35;;;;;;;;;;4950958;28;20059;-63
2022/03/09 12:00:22;;;;;;;25.23;12.10;;;;;;;;;;4950676;28;20062;-63
2022/03/09 12:02:54;;;;;;;26.23;12.55;;;;;;;;;;4942455;28;20048;-63
2022/03/09 12:05:27;;;;;;;23.50;11.93;;;;;;;;;;4950042;28;20095;-63
2022/03/09 12:07:54;;;;;;;27.63;11.98;;;;;;;;;;4948412;28;20143;-64
2022/03/09 12:10:22;;;;;;;24.13;11.73;;;;;;;;;;4950874;28;20121;-60
2022/03/09 12:13:07;;;;;;;23.15;9.85;;;;;;;;;;4947965;28;20059;-62
2022/03/09 12:15:53;;;;;;;24.23;11.35;;;;;;;;;;4949267;28;20055;-63
2022/03/09 12:18:37;;;;;;;24.92;12.38;;;;;;;;;;4949293;28;20166;-61
2022/03/09 12:21:05;;;;;;;22.20;11.10;;;;;;;;;;4949293;28;20115;-61
2022/03/09 12:23:32;;;;;;;23.70;11.63;;;;;;;;;;4950457;28;20066;-63
2022/03/09 12:26:01;;;;;;;26.10;11.82;;;;;;;;;;4950103;28;20054;-63
2022/03/09 12:28:28;;;;;;;;;;;;;;;;;;4948450;28;20055;-62
2022/03/09 12:30:54;;;;;;;28.23;11.15;;;;;;;;;;4948875;28;44980;-62
2022/03/09 12:33:25;;;;;;;22.90;11.55;;;;;;;;;;4951135;28;20058;-62
2022/03/09 12:35:52;;;;;;;26.65;11.50;;;;;;;;;;4949212;28;20142;-62
2022/03/09 12:38:36;;;;;;;25.48;11.27;;;;;;;;;;4950411;28;20048;-62
2022/03/09 12:41:03;;;;;;;24.33;11.32;;;;;;;;;;4946074;28;20083;-62
2022/03/09 12:43:45;;;;;;;27.60;12.35;;;;;;;;;;4948420;28;20051;-62
2022/03/09 12:46:12;;;;;;;29.33;12.98;;;;;;;;;;4948030;28;20131;-62
2022/03/09 12:48:39;;;;;;;26.73;12.02;;;;;;;;;;4949120;28;20142;-62
2022/03/09 12:51:05;;;;;;;24.90;12.00;;;;;;;;;;4949443;28;20060;-62
2022/03/09 12:53:32;;;;;;;25.52;12.60;;;;;;;;;;4948584;28;20135;-62
2022/03/09 12:56:18;;;;;;;26.48;12.48;;;;;;;;;;4949409;28;21033;-61
2022/03/09 12:59:09;;;;;;;28.65;12.88;;;;;;;;;;4946394;28;20499;-63
2022/03/09 13:01:36;;;;;;;24.80;11.95;;;;;;;;;;4946903;28;20150;-63
2022/03/09 13:04:03;;;;;;;28.20;12.95;;;;;;;;;;4945897;28;20056;-63
2022/03/09 13:06:31;;;;;;;23.88;12.77;;;;;;;;;;4948594;28;20106;-63
2022/03/09 13:08:58;;;;;;;30.15;13.90;;;;;;;;;;4948530;28;20048;-62
2022/03/09 13:11:29;;;;;;;27.50;12.57;;;;;;;;;;4949287;28;20062;-62
2022/03/09 13:13:56;;;;;;;25.75;13.05;;;;;;;;;;4948612;28;20162;-63
2022/03/09 13:16:25;;;;;;;25.02;12.93;;;;;;;;;;4945082;28;20138;-62
2022/03/09 13:18:56;;;;;;;27.40;12.60;;;;;;;;;;4940108;28;20059;-62
2022/03/09 13:21:29;;;;;;;25.55;13.27;;;;;;;;;;4940167;28;20143;-63
2022/03/09 13:23:59;;;;;;;30.88;12.77;;;;;;;;;;4933852;28;20055;-63
2022/03/09 13:26:27;;;;;;;31.40;13.13;;;;;;;;;;4945110;28;20155;-62
2022/03/09 13:28:55;;;;;;;26.83;13.45;;;;;;;;;;4943686;28;21984;-63
2022/03/09 13:31:22;;;;;;;24.75;13.05;;;;;;;;;;4943384;28;22386;-63
2022/03/09 13:33:50;;;;;;;27.38;13.35;;;;;;;;;;4943046;28;20051;-63
2022/03/09 13:36:17;;;;;;;27.50;13.23;;;;;;;;;;4943162;28;20142;-63
2022/03/09 13:38:57;;;;;;;27.17;13.25;;;;;;;;;;4949028;28;20073;-63
2022/03/09 13:41:26;;;;;;;26.33;13.45;;;;;;;;;;4945333;28;20594;-63
2022/03/09 13:43:53;;;;;;;28.13;13.90;;;;;;;;;;4947282;28;20054;-65
2022/03/09 13:46:20;;;;;;;26.05;13.32;;;;;;;;;;4948575;28;20086;-64
2022/03/09 13:49:07;;;;;;;27.38;12.60;;;;;;;;;;4947402;28;20082;-62
2022/03/09 13:51:34;;;;;;;25.02;13.60;;;;;;;;;;4948245;28;20091;-63
2022/03/09 13:54:02;;;;;;;27.60;13.57;;;;;;;;;;4948992;28;20044;-63
2022/03/09 13:56:30;;;;;;;28.42;13.52;;;;;;;;;;4949022;28;20067;-64
2022/03/09 13:58:56;;;;;;;27.55;12.65;;;;;;;;;;4949330;28;20169;-63
2022/03/09 14:01:29;;;;;;;26.95;13.32;;;;;;;;;;4948606;28;20195;-63
2022/03/09 14:04:00;;;;;;;25.17;14.48;;;;;;;;;;4948002;28;21035;-63
2022/03/09 14:06:28;;;;;;;27.33;14.32;;;;;;;;;;4948831;28;20060;-63
2022/03/09 14:08:55;;;;;;;;;;;;;;;;;;4948766;28;20060;-63
2022/03/09 14:11:28;;;;;;;29.60;12.98;;;;;;;;;;4946979;28;46371;-63
2022/03/09 14:13:58;;;;;;;30.48;13.73;;;;;;;;;;4946955;28;20075;-63
2022/03/09 14:16:25;;;;;;;28.27;13.82;;;;;;;;;;4948015;28;20082;-63
2022/03/09 14:18:52;;;;;;;27.10;14.00;;;;;;;;;;4950479;28;20111;-63
2022/03/09 14:21:18;;;;;;;29.88;15.02;;;;;;;;;;4948688;28;20178;-63
2022/03/09 14:23:48;;;;;;;28.65;14.43;;;;;;;;;;4951776;28;20138;-64
2022/03/09 14:26:15;;;;;;;28.15;14.63;;;;;;;;;;4949262;28;20058;-63
2022/03/09 14:28:41;;;;;;;30.27;14.73;;;;;;;;;;4946994;28;20055;-64
2022/03/09 14:31:07;;;;;;;28.92;14.75;;;;;;;;;;4951639;28;20518;-63
2022/03/09 14:33:34;;;;;;;26.67;13.82;;;;;;;;;;4942916;28;20056;-63